sensor_id;sensor_type;location;lat;lon;timestamp;temperature;humidity
70368;DHT22;57789;53.868;10.728;2023-02-15T00:01:08;2.90;99.90
70368;DHT22;57789;53.868;10.728;2023-02-15T00:03:35;3.00;99.90
70368;DHT22;57789;53.868;10.728;2023-02-15T00:06:01;3.00;99.90
70368;DHT22;57789;53.868;10.728;2023-02-15T00:08:27;3.10;99.90
70368;DHT22;57789;53.868;10.728;2023-02-15T00:10:53;3.00;99.90
70368;DHT22;57789;53.868;10.728;2023-02-15T00:13:27;3.00;99.90
70368;DHT22;57789;53.868;10.728;2023-02-15T00:15:53;3.00;99.90
70368;DHT22;57789;53.868;10.728;2023-02-15T00:18:19;3.10;99.90
70368;DHT22;57789;53.868;10.728;2023-02-15T00:20:44;3.10;99.90
70368;DHT22;57789;53.868;10.728;2023-02-15T00:23:10;3.10;99.90
70368;DHT22;57789;53.868;10.728;2023-02-15T00:25:35;3.10;99.90
70368;DHT22;57789;53.868;10.728;2023-02-15T00:28:01;3.10;99.90
70368;DHT22;57789;53.868;10.728;2023-02-15T00:30:27;3.10;99.90
70368;DHT22;57789;53.868;10.728;2023-02-15T00:32:52;3.10;99.90
70368;DHT22;57789;53.868;10.728;2023-02-15T00:35:18;3.10;99.90
70368;DHT22;57789;53.868;10.728;2023-02-15T00:37:44;3.10;99.90
70368;DHT22;57789;53.868;10.728;2023-02-15T00:40:10;3.00;99.90
70368;DHT22;57789;53.868;10.728;2023-02-15T00:42:35;2.80;99.90
70368;DHT22;57789;53.868;10.728;2023-02-15T00:45:03;2.60;99.90
70368;DHT22;57789;53.868;10.728;2023-02-15T00:47:30;2.70;99.90
70368;DHT22;57789;53.868;10.728;2023-02-15T00:49:56;2.70;99.90
70368;DHT22;57789;53.868;10.728;2023-02-15T00:52:22;2.80;99.90
70368;DHT22;57789;53.868;10.728;2023-02-15T00:54:48;2.70;99.90
70368;DHT22;57789;53.868;10.728;2023-02-15T00:57:13;2.70;99.90
70368;DHT22;57789;53.868;10.728;2023-02-15T00:59:39;2.50;99.90
70368;DHT22;57789;53.868;10.728;2023-02-15T01:02:05;2.50;99.90
70368;DHT22;57789;53.868;10.728;2023-02-15T01:04:30;2.50;99.90
70368;DHT22;57789;53.868;10.728;2023-02-15T01:06:56;2.40;99.90
70368;DHT22;57789;53.868;10.728;2023-02-15T01:09:21;2.50;99.90
70368;DHT22;57789;53.868;10.728;2023-02-15T01:11:47;2.40;99.90
70368;DHT22;57789;53.868;10.728;2023-02-15T01:14:16;2.30;99.90
70368;DHT22;57789;53.868;10.728;2023-02-15T01:16:41;2.10;99.90
70368;DHT22;57789;53.868;10.728;2023-02-15T01:19:07;1.90;99.90
70368;DHT22;57789;53.868;10.728;2023-02-15T01:21:33;1.90;99.90
70368;DHT22;57789;53.868;10.728;2023-02-15T01:24:00;2.00;99.90
70368;DHT22;57789;53.868;10.728;2023-02-15T01:26:26;2.00;99.90
70368;DHT22;57789;53.868;10.728;2023-02-15T01:28:52;2.10;99.90
70368;DHT22;57789;53.868;10.728;2023-02-15T01:31:20;2.10;99.90
70368;DHT22;57789;53.868;10.728;2023-02-15T01:33:47;1.90;99.90
70368;DHT22;57789;53.868;10.728;2023-02-15T01:36:14;1.90;99.90
70368;DHT22;57789;53.868;10.728;2023-02-15T01:38:39;2.00;99.90
70368;DHT22;57789;53.868;10.728;2023-02-15T01:41:05;1.90;99.90
70368;DHT22;57789;53.868;10.728;2023-02-15T01:43:55;1.80;99.90
70368;DHT22;57789;53.868;10.728;2023-02-15T01:46:33;1.80;99.90
70368;DHT22;57789;53.868;10.728;2023-02-15T01:49:05;1.80;99.90
70368;DHT22;57789;53.868;10.728;2023-02-15T01:51:38;1.80;99.90
70368;DHT22;57789;53.868;10.728;2023-02-15T01:54:27;1.80;99.90
70368;DHT22;57789;53.868;10.728;2023-02-15T01:56:59;1.90;99.90
70368;DHT22;57789;53.868;10.728;2023-02-15T01:59:26;1.90;99.90
70368;DHT22;57789;53.868;10.728;2023-02-15T02:01:54;1.90;99.90
70368;DHT22;57789;53.868;10.728;2023-02-15T02:04:30;1.80;99.90
70368;DHT22;57789;53.868;10.728;2023-02-15T02:06:57;1.80;99.90
70368;DHT22;57789;53.868;10.728;2023-02-15T02:09:24;1.80;99.90
70368;DHT22;57789;53.868;10.728;2023-02-15T02:11:50;1.80;99.90
70368;DHT22;57789;53.868;10.728;2023-02-15T02:14:16;1.80;99.90
70368;DHT22;57789;53.868;10.728;2023-02-15T02:21:51;1.50;99.90
70368;DHT22;57789;53.868;10.728;2023-02-15T02:43:37;1.70;99.90
70368;DHT22;57789;53.868;10.728;2023-02-15T02:47:04;1.60;99.90
70368;DHT22;57789;53.868;10.728;2023-02-15T02:49:08;1.40;99.90
70368;DHT22;57789;53.868;10.728;2023-02-15T02:51:34;1.50;99.90
70368;DHT22;57789;53.868;10.728;2023-02-15T02:54:02;1.50;99.90
70368;DHT22;57789;53.868;10.728;2023-02-15T02:56:36;1.60;99.90
70368;DHT22;57789;53.868;10.728;2023-02-15T02:59:20;1.60;99.90
70368;DHT22;57789;53.868;10.728;2023-02-15T03:02:11;1.40;99.90
70368;DHT22;57789;53.868;10.728;2023-02-15T03:04:41;1.10;99.90
70368;DHT22;57789;53.868;10.728;2023-02-15T03:07:12;1.10;99.90
70368;DHT22;57789;53.868;10.728;2023-02-15T03:09:50;1.20;99.90
70368;DHT22;57789;53.868;10.728;2023-02-15T03:12:20;1.30;99.90
70368;DHT22;57789;53.868;10.728;2023-02-15T03:14:52;1.50;99.90
70368;DHT22;57789;53.868;10.728;2023-02-15T03:17:20;1.50;99.90
70368;DHT22;57789;53.868;10.728;2023-02-15T03:19:48;1.50;99.90
70368;DHT22;57789;53.868;10.728;2023-02-15T03:22:24;1.30;99.90
70368;DHT22;57789;53.868;10.728;2023-02-15T03:27:33;1.30;99.90
70368;DHT22;57789;53.868;10.728;2023-02-15T03:30:02;1.40;99.90
70368;DHT22;57789;53.868;10.728;2023-02-15T03:32:30;1.50;99.90
70368;DHT22;57789;53.868;10.728;2023-02-15T03:34:57;1.50;99.90
70368;DHT22;57789;53.868;10.728;2023-02-15T03:37:35;1.40;99.90
70368;DHT22;57789;53.868;10.728;2023-02-15T03:43:21;1.30;99.90
70368;DHT22;57789;53.868;10.728;2023-02-15T03:45:51;1.10;99.90
70368;DHT22;57789;53.868;10.728;2023-02-15T03:48:36;1.20;99.90
70368;DHT22;57789;53.868;10.728;2023-02-15T03:51:11;1.20;99.90
70368;DHT22;57789;53.868;10.728;2023-02-15T03:53:57;1.20;99.90
70368;DHT22;57789;53.868;10.728;2023-02-15T03:56:24;1.10;99.90
70368;DHT22;57789;53.868;10.728;2023-02-15T03:58:50;1.10;99.90
70368;DHT22;57789;53.868;10.728;2023-02-15T04:01:38;1.20;99.90
70368;DHT22;57789;53.868;10.728;2023-02-15T04:04:46;1.20;99.90
70368;DHT22;57789;53.868;10.728;2023-02-15T04:07:12;1.20;99.90
70368;DHT22;57789;53.868;10.728;2023-02-15T04:09:38;1.40;99.90
70368;DHT22;57789;53.868;10.728;2023-02-15T04:12:22;1.50;99.90
70368;DHT22;57789;53.868;10.728;2023-02-15T04:14:48;1.70;99.90
70368;DHT22;57789;53.868;10.728;2023-02-15T04:17:33;1.80;99.90
70368;DHT22;57789;53.868;10.728;2023-02-15T04:19:58;1.70;99.90
70368;DHT22;57789;53.868;10.728;2023-02-15T04:22:43;1.60;99.90
70368;DHT22;57789;53.868;10.728;2023-02-15T04:25:27;1.80;99.90
70368;DHT22;57789;53.868;10.728;2023-02-15T04:27:54;2.00;99.90
70368;DHT22;57789;53.868;10.728;2023-02-15T04:30:23;2.00;99.90
70368;DHT22;57789;53.868;10.728;2023-02-15T04:32:49;2.00;99.90
70368;DHT22;57789;53.868;10.728;2023-02-15T04:35:15;2.00;99.90
70368;DHT22;57789;53.868;10.728;2023-02-15T04:37:42;2.00;99.90
70368;DHT22;57789;53.868;10.728;2023-02-15T04:40:12;2.00;99.90
70368;DHT22;57789;53.868;10.728;2023-02-15T04:42:38;1.90;99.90
70368;DHT22;57789;53.868;10.728;2023-02-15T04:45:04;1.80;99.90
70368;DHT22;57789;53.868;10.728;2023-02-15T04:47:30;1.90;99.90
70368;DHT22;57789;53.868;10.728;2023-02-15T04:49:56;2.00;99.90
70368;DHT22;57789;53.868;10.728;2023-02-15T04:52:21;1.90;99.90
70368;DHT22;57789;53.868;10.728;2023-02-15T04:54:47;1.90;99.90
70368;DHT22;57789;53.868;10.728;2023-02-15T04:57:13;2.00;99.90
70368;DHT22;57789;53.868;10.728;2023-02-15T04:59:39;2.00;99.90
70368;DHT22;57789;53.868;10.728;2023-02-15T05:02:04;2.00;99.90
70368;DHT22;57789;53.868;10.728;2023-02-15T05:04:30;1.90;99.90
70368;DHT22;57789;53.868;10.728;2023-02-15T05:06:56;1.90;99.90
70368;DHT22;57789;53.868;10.728;2023-02-15T05:09:22;1.90;99.90
70368;DHT22;57789;53.868;10.728;2023-02-15T05:11:47;1.90;99.90
70368;DHT22;57789;53.868;10.728;2023-02-15T05:14:13;1.90;99.90
70368;DHT22;57789;53.868;10.728;2023-02-15T05:16:39;1.80;99.90
70368;DHT22;57789;53.868;10.728;2023-02-15T05:19:04;1.80;99.90
70368;DHT22;57789;53.868;10.728;2023-02-15T05:21:31;1.80;99.90
70368;DHT22;57789;53.868;10.728;2023-02-15T05:23:57;1.70;99.90
70368;DHT22;57789;53.868;10.728;2023-02-15T05:26:24;1.70;99.90
70368;DHT22;57789;53.868;10.728;2023-02-15T05:29:09;1.60;99.90
70368;DHT22;57789;53.868;10.728;2023-02-15T05:31:35;1.60;99.90
70368;DHT22;57789;53.868;10.728;2023-02-15T05:34:01;1.60;99.90
70368;DHT22;57789;53.868;10.728;2023-02-15T05:36:27;1.60;99.90
70368;DHT22;57789;53.868;10.728;2023-02-15T05:38:53;1.50;99.90
70368;DHT22;57789;53.868;10.728;2023-02-15T05:41:20;1.50;99.90
70368;DHT22;57789;53.868;10.728;2023-02-15T05:43:46;1.50;99.90
70368;DHT22;57789;53.868;10.728;2023-02-15T05:46:12;1.50;99.90
70368;DHT22;57789;53.868;10.728;2023-02-15T05:48:38;1.50;99.90
70368;DHT22;57789;53.868;10.728;2023-02-15T05:51:10;1.40;99.90
70368;DHT22;57789;53.868;10.728;2023-02-15T05:53:39;1.40;99.90
70368;DHT22;57789;53.868;10.728;2023-02-15T05:56:06;1.50;99.90
70368;DHT22;57789;53.868;10.728;2023-02-15T05:58:35;1.50;99.90
70368;DHT22;57789;53.868;10.728;2023-02-15T06:03:37;1.30;99.90
70368;DHT22;57789;53.868;10.728;2023-02-15T06:06:03;1.40;99.90
70368;DHT22;57789;53.868;10.728;2023-02-15T06:08:30;1.50;99.90
70368;DHT22;57789;53.868;10.728;2023-02-15T06:10:56;1.50;99.90
70368;DHT22;57789;53.868;10.728;2023-02-15T06:13:22;1.40;99.90
70368;DHT22;57789;53.868;10.728;2023-02-15T06:15:47;1.40;99.90
70368;DHT22;57789;53.868;10.728;2023-02-15T06:18:13;1.40;99.90
70368;DHT22;57789;53.868;10.728;2023-02-15T06:20:39;1.40;99.90
70368;DHT22;57789;53.868;10.728;2023-02-15T06:23:04;1.30;99.90
70368;DHT22;57789;53.868;10.728;2023-02-15T06:25:30;1.40;99.90
70368;DHT22;57789;53.868;10.728;2023-02-15T06:27:56;1.40;99.90
70368;DHT22;57789;53.868;10.728;2023-02-15T06:30:21;1.30;99.90
70368;DHT22;57789;53.868;10.728;2023-02-15T06:32:47;1.40;99.90
70368;DHT22;57789;53.868;10.728;2023-02-15T06:35:13;1.30;99.90
70368;DHT22;57789;53.868;10.728;2023-02-15T06:37:39;1.40;99.90
70368;DHT22;57789;53.868;10.728;2023-02-15T06:40:05;1.40;99.90
70368;DHT22;57789;53.868;10.728;2023-02-15T06:42:31;1.40;99.90
70368;DHT22;57789;53.868;10.728;2023-02-15T06:44:57;1.50;99.90
70368;DHT22;57789;53.868;10.728;2023-02-15T06:47:22;1.50;99.90
70368;DHT22;57789;53.868;10.728;2023-02-15T06:49:48;1.60;99.90
70368;DHT22;57789;53.868;10.728;2023-02-15T06:52:13;1.60;99.90
70368;DHT22;57789;53.868;10.728;2023-02-15T06:54:39;1.70;99.90
70368;DHT22;57789;53.868;10.728;2023-02-15T06:57:05;1.60;99.90
70368;DHT22;57789;53.868;10.728;2023-02-15T06:59:30;1.60;99.90
70368;DHT22;57789;53.868;10.728;2023-02-15T07:01:56;1.60;99.90
70368;DHT22;57789;53.868;10.728;2023-02-15T07:04:22;1.70;99.90
70368;DHT22;57789;53.868;10.728;2023-02-15T07:06:47;1.70;99.90
70368;DHT22;57789;53.868;10.728;2023-02-15T07:09:15;1.70;99.90
70368;DHT22;57789;53.868;10.728;2023-02-15T07:11:40;1.80;99.90
70368;DHT22;57789;53.868;10.728;2023-02-15T07:14:24;1.80;99.90
70368;DHT22;57789;53.868;10.728;2023-02-15T07:16:50;1.50;99.90
70368;DHT22;57789;53.868;10.728;2023-02-15T07:19:15;1.60;99.90
70368;DHT22;57789;53.868;10.728;2023-02-15T07:21:41;1.70;99.90
70368;DHT22;57789;53.868;10.728;2023-02-15T07:24:07;1.60;99.90
70368;DHT22;57789;53.868;10.728;2023-02-15T07:26:33;1.70;99.90
70368;DHT22;57789;53.868;10.728;2023-02-15T07:28:59;1.60;99.90
70368;DHT22;57789;53.868;10.728;2023-02-15T07:31:24;1.70;99.90
70368;DHT22;57789;53.868;10.728;2023-02-15T07:33:50;1.70;99.90
70368;DHT22;57789;53.868;10.728;2023-02-15T07:36:15;1.80;99.90
70368;DHT22;57789;53.868;10.728;2023-02-15T07:38:41;1.90;99.90
70368;DHT22;57789;53.868;10.728;2023-02-15T07:41:09;1.70;99.90
70368;DHT22;57789;53.868;10.728;2023-02-15T07:43:38;1.70;99.90
70368;DHT22;57789;53.868;10.728;2023-02-15T07:46:10;1.70;99.90
70368;DHT22;57789;53.868;10.728;2023-02-15T07:48:37;1.70;99.90
70368;DHT22;57789;53.868;10.728;2023-02-15T07:51:06;1.80;99.90
70368;DHT22;57789;53.868;10.728;2023-02-15T07:53:33;1.70;99.90
70368;DHT22;57789;53.868;10.728;2023-02-15T07:56:03;1.70;99.90
70368;DHT22;57789;53.868;10.728;2023-02-15T07:58:29;1.70;99.90
70368;DHT22;57789;53.868;10.728;2023-02-15T08:01:16;1.70;99.90
70368;DHT22;57789;53.868;10.728;2023-02-15T08:03:42;1.80;99.90
70368;DHT22;57789;53.868;10.728;2023-02-15T08:06:08;1.90;99.90
70368;DHT22;57789;53.868;10.728;2023-02-15T08:08:37;1.80;99.90
70368;DHT22;57789;53.868;10.728;2023-02-15T08:11:06;1.90;99.90
70368;DHT22;57789;53.868;10.728;2023-02-15T08:16:38;1.90;99.90
70368;DHT22;57789;53.868;10.728;2023-02-15T08:19:17;1.90;99.90
70368;DHT22;57789;53.868;10.728;2023-02-15T08:21:46;1.70;99.90
70368;DHT22;57789;53.868;10.728;2023-02-15T08:24:13;1.90;99.90
70368;DHT22;57789;53.868;10.728;2023-02-15T08:26:40;1.80;99.90
70368;DHT22;57789;53.868;10.728;2023-02-15T08:29:07;1.80;99.90
70368;DHT22;57789;53.868;10.728;2023-02-15T08:31:34;1.70;99.90
70368;DHT22;57789;53.868;10.728;2023-02-15T08:33:59;1.90;99.90
70368;DHT22;57789;53.868;10.728;2023-02-15T08:36:28;1.90;99.90
70368;DHT22;57789;53.868;10.728;2023-02-15T08:38:57;1.90;99.90
70368;DHT22;57789;53.868;10.728;2023-02-15T08:41:25;2.00;99.90
70368;DHT22;57789;53.868;10.728;2023-02-15T08:43:56;2.10;99.90
70368;DHT22;57789;53.868;10.728;2023-02-15T08:46:24;2.10;99.90
70368;DHT22;57789;53.868;10.728;2023-02-15T08:48:51;2.30;99.90
70368;DHT22;57789;53.868;10.728;2023-02-15T08:51:19;2.20;99.90
70368;DHT22;57789;53.868;10.728;2023-02-15T08:53:48;2.20;99.90
70368;DHT22;57789;53.868;10.728;2023-02-15T08:56:18;2.10;99.90
70368;DHT22;57789;53.868;10.728;2023-02-15T08:58:44;2.00;99.90
70368;DHT22;57789;53.868;10.728;2023-02-15T09:01:12;2.10;99.90
70368;DHT22;57789;53.868;10.728;2023-02-15T09:03:38;2.10;99.90
70368;DHT22;57789;53.868;10.728;2023-02-15T09:06:05;2.00;99.90
70368;DHT22;57789;53.868;10.728;2023-02-15T09:08:31;2.00;99.90
70368;DHT22;57789;53.868;10.728;2023-02-15T09:11:12;2.00;99.90
70368;DHT22;57789;53.868;10.728;2023-02-15T09:13:39;2.10;99.90
70368;DHT22;57789;53.868;10.728;2023-02-15T09:16:07;2.20;99.90
70368;DHT22;57789;53.868;10.728;2023-02-15T09:18:36;2.50;99.90
70368;DHT22;57789;53.868;10.728;2023-02-15T09:21:11;2.60;99.90
70368;DHT22;57789;53.868;10.728;2023-02-15T09:23:39;2.50;99.90
70368;DHT22;57789;53.868;10.728;2023-02-15T09:26:08;2.30;99.90
70368;DHT22;57789;53.868;10.728;2023-02-15T09:28:34;2.30;99.90
70368;DHT22;57789;53.868;10.728;2023-02-15T09:33:35;2.30;99.90
70368;DHT22;57789;53.868;10.728;2023-02-15T09:36:03;2.50;99.90
70368;DHT22;57789;53.868;10.728;2023-02-15T09:38:29;2.60;99.90
70368;DHT22;57789;53.868;10.728;2023-02-15T09:47:06;2.70;99.90
70368;DHT22;57789;53.868;10.728;2023-02-15T09:49:48;2.50;99.90
70368;DHT22;57789;53.868;10.728;2023-02-15T10:04:37;2.50;99.90
70368;DHT22;57789;53.868;10.728;2023-02-15T10:07:31;2.50;99.90
70368;DHT22;57789;53.868;10.728;2023-02-15T10:13:21;2.80;99.90
70368;DHT22;57789;53.868;10.728;2023-02-15T10:18:49;2.70;99.90
70368;DHT22;57789;53.868;10.728;2023-02-15T10:21:33;2.80;99.90
70368;DHT22;57789;53.868;10.728;2023-02-15T10:24:23;2.80;99.90
70368;DHT22;57789;53.868;10.728;2023-02-15T10:26:58;2.90;99.90
70368;DHT22;57789;53.868;10.728;2023-02-15T10:29:39;3.00;99.90
70368;DHT22;57789;53.868;10.728;2023-02-15T10:32:28;3.10;99.90
70368;DHT22;57789;53.868;10.728;2023-02-15T10:37:53;3.20;99.90
70368;DHT22;57789;53.868;10.728;2023-02-15T10:40:28;3.20;99.90
70368;DHT22;57789;53.868;10.728;2023-02-15T10:46:05;3.40;99.90
70368;DHT22;57789;53.868;10.728;2023-02-15T10:54:49;3.90;99.90
70368;DHT22;57789;53.868;10.728;2023-02-15T10:57:55;3.50;99.90
70368;DHT22;57789;53.868;10.728;2023-02-15T11:00:38;3.30;99.90
70368;DHT22;57789;53.868;10.728;2023-02-15T11:03:32;3.80;99.90
70368;DHT22;57789;53.868;10.728;2023-02-15T11:08:38;3.90;99.90
70368;DHT22;57789;53.868;10.728;2023-02-15T11:11:12;3.80;99.90
70368;DHT22;57789;53.868;10.728;2023-02-15T11:13:44;3.60;99.90
70368;DHT22;57789;53.868;10.728;2023-02-15T11:16:18;3.60;99.90
70368;DHT22;57789;53.868;10.728;2023-02-15T11:19:03;3.80;99.90
70368;DHT22;57789;53.868;10.728;2023-02-15T11:21:42;4.00;99.90
70368;DHT22;57789;53.868;10.728;2023-02-15T11:24:20;4.00;99.90
70368;DHT22;57789;53.868;10.728;2023-02-15T11:30:12;4.00;99.90
70368;DHT22;57789;53.868;10.728;2023-02-15T11:32:45;4.00;99.90
70368;DHT22;57789;53.868;10.728;2023-02-15T11:38:28;4.30;99.90
70368;DHT22;57789;53.868;10.728;2023-02-15T11:40:50;4.10;99.90
70368;DHT22;57789;53.868;10.728;2023-02-15T11:43:26;3.90;99.90
70368;DHT22;57789;53.868;10.728;2023-02-15T11:45:54;4.00;99.90
70368;DHT22;57789;53.868;10.728;2023-02-15T11:48:20;4.10;99.90
70368;DHT22;57789;53.868;10.728;2023-02-15T11:50:46;4.00;99.90
70368;DHT22;57789;53.868;10.728;2023-02-15T11:53:18;3.80;99.90
70368;DHT22;57789;53.868;10.728;2023-02-15T11:55:45;3.90;99.90
70368;DHT22;57789;53.868;10.728;2023-02-15T12:00:58;3.50;99.90
70368;DHT22;57789;53.868;10.728;2023-02-15T12:06:17;3.20;99.90
70368;DHT22;57789;53.868;10.728;2023-02-15T12:08:50;3.40;99.90
70368;DHT22;57789;53.868;10.728;2023-02-15T12:11:22;3.40;99.90
70368;DHT22;57789;53.868;10.728;2023-02-15T12:13:56;3.30;99.90
70368;DHT22;57789;53.868;10.728;2023-02-15T12:16:22;3.60;99.90
70368;DHT22;57789;53.868;10.728;2023-02-15T12:18:50;3.80;99.90
70368;DHT22;57789;53.868;10.728;2023-02-15T12:21:29;3.90;99.90
70368;DHT22;57789;53.868;10.728;2023-02-15T12:24:03;4.00;99.90
70368;DHT22;57789;53.868;10.728;2023-02-15T12:26:34;3.80;99.90
70368;DHT22;57789;53.868;10.728;2023-02-15T12:29:07;3.90;99.90
70368;DHT22;57789;53.868;10.728;2023-02-15T12:31:40;4.10;99.90
70368;DHT22;57789;53.868;10.728;2023-02-15T12:36:47;4.00;99.90
70368;DHT22;57789;53.868;10.728;2023-02-15T12:39:53;4.20;99.90
70368;DHT22;57789;53.868;10.728;2023-02-15T12:42:19;4.30;99.90
70368;DHT22;57789;53.868;10.728;2023-02-15T12:47:21;4.40;99.90
70368;DHT22;57789;53.868;10.728;2023-02-15T12:52:46;4.30;99.90
70368;DHT22;57789;53.868;10.728;2023-02-15T12:55:27;4.30;99.90
70368;DHT22;57789;53.868;10.728;2023-02-15T12:58:17;4.30;99.90
70368;DHT22;57789;53.868;10.728;2023-02-15T13:00:44;4.30;99.90
70368;DHT22;57789;53.868;10.728;2023-02-15T13:03:19;4.20;99.90
70368;DHT22;57789;53.868;10.728;2023-02-15T13:05:47;4.40;99.90
70368;DHT22;57789;53.868;10.728;2023-02-15T13:08:18;4.60;99.90
70368;DHT22;57789;53.868;10.728;2023-02-15T13:11:07;4.60;99.90
70368;DHT22;57789;53.868;10.728;2023-02-15T13:13:45;4.60;99.90
70368;DHT22;57789;53.868;10.728;2023-02-15T13:16:14;4.50;99.90
70368;DHT22;57789;53.868;10.728;2023-02-15T13:18:45;4.70;99.90
70368;DHT22;57789;53.868;10.728;2023-02-15T13:21:33;4.40;99.90
70368;DHT22;57789;53.868;10.728;2023-02-15T13:24:06;4.30;99.90
70368;DHT22;57789;53.868;10.728;2023-02-15T13:26:34;4.30;99.90
70368;DHT22;57789;53.868;10.728;2023-02-15T13:29:15;4.30;99.90
70368;DHT22;57789;53.868;10.728;2023-02-15T13:31:42;4.30;99.90
70368;DHT22;57789;53.868;10.728;2023-02-15T13:34:14;4.40;99.90
70368;DHT22;57789;53.868;10.728;2023-02-15T13:39:35;4.20;99.90
70368;DHT22;57789;53.868;10.728;2023-02-15T13:53:20;4.50;99.90
70368;DHT22;57789;53.868;10.728;2023-02-15T13:56:17;4.40;99.90
70368;DHT22;57789;53.868;10.728;2023-02-15T14:01:31;4.30;99.90
70368;DHT22;57789;53.868;10.728;2023-02-15T14:06:58;4.40;99.90
70368;DHT22;57789;53.868;10.728;2023-02-15T14:23:24;4.60;99.90
70368;DHT22;57789;53.868;10.728;2023-02-15T14:26:18;4.60;99.90
70368;DHT22;57789;53.868;10.728;2023-02-15T14:31:32;4.60;99.90
70368;DHT22;57789;53.868;10.728;2023-02-15T14:34:00;4.70;99.90
70368;DHT22;57789;53.868;10.728;2023-02-15T14:36:27;4.90;99.90
70368;DHT22;57789;53.868;10.728;2023-02-15T14:42:36;4.80;99.90
70368;DHT22;57789;53.868;10.728;2023-02-15T14:45:17;4.70;99.90
70368;DHT22;57789;53.868;10.728;2023-02-15T14:47:54;4.70;99.90
70368;DHT22;57789;53.868;10.728;2023-02-15T14:53:37;4.60;99.90
70368;DHT22;57789;53.868;10.728;2023-02-15T14:58:38;4.70;99.90
70368;DHT22;57789;53.868;10.728;2023-02-15T15:01:10;4.90;99.90
70368;DHT22;57789;53.868;10.728;2023-02-15T15:03:36;4.80;99.90
70368;DHT22;57789;53.868;10.728;2023-02-15T15:06:30;4.70;99.90
70368;DHT22;57789;53.868;10.728;2023-02-15T15:11:54;4.30;99.90
70368;DHT22;57789;53.868;10.728;2023-02-15T15:16:59;4.50;99.90
70368;DHT22;57789;53.868;10.728;2023-02-15T15:22:23;4.50;99.90
70368;DHT22;57789;53.868;10.728;2023-02-15T15:25:00;4.50;99.90
70368;DHT22;57789;53.868;10.728;2023-02-15T15:27:47;4.40;99.90
70368;DHT22;57789;53.868;10.728;2023-02-15T15:32:56;4.50;99.90
70368;DHT22;57789;53.868;10.728;2023-02-15T15:47:37;4.50;99.90
70368;DHT22;57789;53.868;10.728;2023-02-15T15:50:15;4.30;99.90
70368;DHT22;57789;53.868;10.728;2023-02-15T15:52:49;4.30;99.90
70368;DHT22;57789;53.868;10.728;2023-02-15T15:55:18;4.30;99.90
70368;DHT22;57789;53.868;10.728;2023-02-15T15:57:47;4.20;99.90
70368;DHT22;57789;53.868;10.728;2023-02-15T16:00:41;4.20;99.90
70368;DHT22;57789;53.868;10.728;2023-02-15T16:03:24;4.20;99.90
70368;DHT22;57789;53.868;10.728;2023-02-15T16:05:50;4.20;99.90
70368;DHT22;57789;53.868;10.728;2023-02-15T16:10:56;4.10;99.90
70368;DHT22;57789;53.868;10.728;2023-02-15T16:13:23;4.10;99.90
70368;DHT22;57789;53.868;10.728;2023-02-15T16:15:53;4.00;99.90
70368;DHT22;57789;53.868;10.728;2023-02-15T16:18:23;4.10;99.90
70368;DHT22;57789;53.868;10.728;2023-02-15T16:21:00;4.00;99.90
70368;DHT22;57789;53.868;10.728;2023-02-15T16:26:52;4.00;99.90
70368;DHT22;57789;53.868;10.728;2023-02-15T16:28:53;4.00;99.90
70368;DHT22;57789;53.868;10.728;2023-02-15T16:31:20;4.00;99.90
70368;DHT22;57789;53.868;10.728;2023-02-15T16:33:53;4.10;99.90
70368;DHT22;57789;53.868;10.728;2023-02-15T16:36:27;4.00;99.90
70368;DHT22;57789;53.868;10.728;2023-02-15T16:41:29;4.00;99.90
70368;DHT22;57789;53.868;10.728;2023-02-15T16:44:00;4.10;99.90
70368;DHT22;57789;53.868;10.728;2023-02-15T16:46:32;4.00;99.90
70368;DHT22;57789;53.868;10.728;2023-02-15T16:49:01;4.10;99.90
70368;DHT22;57789;53.868;10.728;2023-02-15T16:51:30;4.00;99.90
70368;DHT22;57789;53.868;10.728;2023-02-15T16:54:03;4.00;99.90
70368;DHT22;57789;53.868;10.728;2023-02-15T16:56:31;4.00;99.90
70368;DHT22;57789;53.868;10.728;2023-02-15T16:58:58;4.00;99.90
70368;DHT22;57789;53.868;10.728;2023-02-15T17:01:28;4.00;99.90
70368;DHT22;57789;53.868;10.728;2023-02-15T17:07:18;3.90;99.90
70368;DHT22;57789;53.868;10.728;2023-02-15T17:09:55;3.90;99.90
70368;DHT22;57789;53.868;10.728;2023-02-15T17:12:44;3.90;99.90
70368;DHT22;57789;53.868;10.728;2023-02-15T17:15:35;3.90;99.90
70368;DHT22;57789;53.868;10.728;2023-02-15T17:18:19;4.00;99.90
70368;DHT22;57789;53.868;10.728;2023-02-15T17:20:47;3.90;99.90
70368;DHT22;57789;53.868;10.728;2023-02-15T17:23:46;4.00;99.90
70368;DHT22;57789;53.868;10.728;2023-02-15T17:26:24;3.80;99.90
70368;DHT22;57789;53.868;10.728;2023-02-15T17:31:25;3.90;99.90
70368;DHT22;57789;53.868;10.728;2023-02-15T17:33:54;3.90;99.90
70368;DHT22;57789;53.868;10.728;2023-02-15T17:36:22;3.90;99.90
70368;DHT22;57789;53.868;10.728;2023-02-15T17:43:53;3.90;99.90
70368;DHT22;57789;53.868;10.728;2023-02-15T17:46:19;3.90;99.90
70368;DHT22;57789;53.868;10.728;2023-02-15T17:48:52;3.80;99.90
70368;DHT22;57789;53.868;10.728;2023-02-15T17:51:20;3.80;99.90
70368;DHT22;57789;53.868;10.728;2023-02-15T17:53:46;3.80;99.90
70368;DHT22;57789;53.868;10.728;2023-02-15T17:56:35;3.90;99.90
70368;DHT22;57789;53.868;10.728;2023-02-15T17:59:01;3.90;99.90
70368;DHT22;57789;53.868;10.728;2023-02-15T18:01:35;3.90;99.90
70368;DHT22;57789;53.868;10.728;2023-02-15T18:04:20;3.70;99.90
70368;DHT22;57789;53.868;10.728;2023-02-15T18:07:04;3.80;99.90
70368;DHT22;57789;53.868;10.728;2023-02-15T18:09:48;3.80;99.90
70368;DHT22;57789;53.868;10.728;2023-02-15T18:12:36;3.80;99.90
70368;DHT22;57789;53.868;10.728;2023-02-15T18:15:04;3.80;99.90
70368;DHT22;57789;53.868;10.728;2023-02-15T18:20:04;3.80;99.90
70368;DHT22;57789;53.868;10.728;2023-02-15T18:22:31;3.80;99.90
70368;DHT22;57789;53.868;10.728;2023-02-15T18:24:57;3.80;99.90
70368;DHT22;57789;53.868;10.728;2023-02-15T18:27:23;3.80;99.90
70368;DHT22;57789;53.868;10.728;2023-02-15T18:29:49;3.80;99.90
70368;DHT22;57789;53.868;10.728;2023-02-15T18:32:18;3.80;99.90
70368;DHT22;57789;53.868;10.728;2023-02-15T18:34:47;3.70;99.90
70368;DHT22;57789;53.868;10.728;2023-02-15T18:37:16;3.70;99.90
70368;DHT22;57789;53.868;10.728;2023-02-15T18:39:45;3.70;99.90
70368;DHT22;57789;53.868;10.728;2023-02-15T18:42:23;3.60;99.90
70368;DHT22;57789;53.868;10.728;2023-02-15T18:44:58;3.60;99.90
70368;DHT22;57789;53.868;10.728;2023-02-15T18:47:24;3.60;99.90
70368;DHT22;57789;53.868;10.728;2023-02-15T18:49:50;3.60;99.90
70368;DHT22;57789;53.868;10.728;2023-02-15T18:52:22;3.60;99.90
70368;DHT22;57789;53.868;10.728;2023-02-15T18:54:53;3.70;99.90
70368;DHT22;57789;53.868;10.728;2023-02-15T18:57:20;3.60;99.90
70368;DHT22;57789;53.868;10.728;2023-02-15T18:59:45;3.60;99.90
70368;DHT22;57789;53.868;10.728;2023-02-15T19:02:16;3.60;99.90